createdAt,value
2018-07-22T00:00:37.691Z,22.18
2018-07-22T00:01:37.597Z,22.23
2018-07-22T00:02:37.509Z,22.25
2018-07-22T00:03:37.416Z,22.18
2018-07-22T00:04:37.313Z,22.22
2018-07-22T00:05:37.224Z,22.20
2018-07-22T00:06:37.134Z,22.17
2018-07-22T00:07:37.043Z,22.18
2018-07-22T00:08:36.951Z,22.14
2018-07-22T00:09:36.847Z,22.14
2018-07-22T00:10:36.761Z,22.11
2018-07-22T00:11:36.667Z,22.13
2018-07-22T00:12:36.575Z,22.08
2018-07-22T00:13:36.484Z,22.07
2018-07-22T00:14:36.387Z,22.04
2018-07-22T00:15:36.292Z,21.98
2018-07-22T00:16:36.200Z,21.92
2018-07-22T00:17:36.101Z,21.88
2018-07-22T00:18:36.009Z,21.88
2018-07-22T00:19:35.915Z,21.82
2018-07-22T00:20:35.825Z,21.82
2018-07-22T00:21:35.731Z,21.79
2018-07-22T00:22:35.628Z,21.73
2018-07-22T00:23:35.838Z,21.66
2018-07-22T00:24:35.447Z,21.66
2018-07-22T00:25:35.358Z,21.62
2018-07-22T00:26:35.267Z,21.66
2018-07-22T00:27:35.178Z,21.67
2018-07-22T00:28:35.074Z,21.61
2018-07-22T00:29:34.981Z,21.66
2018-07-22T00:30:34.890Z,21.64
2018-07-22T00:31:34.786Z,21.70
2018-07-22T00:32:34.696Z,21.62
2018-07-22T00:33:34.606Z,21.58
2018-07-22T00:34:34.514Z,21.57
2018-07-22T00:35:34.423Z,21.54
2018-07-22T00:36:34.320Z,21.52
2018-07-22T00:37:34.231Z,21.45
2018-07-22T00:38:34.141Z,21.40
2018-07-22T00:39:34.049Z,21.45
2018-07-22T00:40:33.958Z,21.33
2018-07-22T00:41:33.865Z,21.32
2018-07-22T00:42:33.762Z,21.22
2018-07-22T00:43:33.973Z,21.24
2018-07-22T00:44:33.581Z,21.14
2018-07-22T00:45:33.495Z,21.22
2018-07-22T00:46:33.389Z,21.22
2018-07-22T00:47:33.299Z,21.18
2018-07-22T00:48:33.208Z,21.14
2018-07-22T00:49:33.115Z,21.14
2018-07-22T00:50:33.025Z,21.06
2018-07-22T00:51:32.922Z,20.96
2018-07-22T00:52:32.831Z,21.00
2018-07-22T00:53:32.739Z,20.97
2018-07-22T00:54:32.661Z,21.02
2018-07-22T00:55:32.557Z,20.85
2018-07-22T00:56:32.454Z,20.87
2018-07-22T00:57:32.364Z,20.87
2018-07-22T00:58:32.274Z,20.81
2018-07-22T00:59:32.182Z,20.80
2018-07-22T01:00:32.084Z,20.77
2018-07-22T01:01:31.990Z,20.77
2018-07-22T01:02:31.899Z,20.77
2018-07-22T01:03:31.810Z,20.80
2018-07-22T01:04:31.717Z,20.70
2018-07-22T01:05:31.612Z,20.77
2018-07-22T01:06:31.520Z,20.75
2018-07-22T01:07:31.432Z,20.72
2018-07-22T01:08:31.339Z,20.75
2018-07-22T01:09:31.251Z,20.72
2018-07-22T01:10:31.152Z,20.74
2018-07-22T01:11:31.056Z,20.63
2018-07-22T01:12:30.965Z,20.62
2018-07-22T01:13:30.873Z,20.55
2018-07-22T01:14:30.781Z,20.52
2018-07-22T01:15:30.679Z,20.44
2018-07-22T01:16:30.588Z,20.41
2018-07-22T01:17:30.498Z,20.43
2018-07-22T01:18:30.408Z,20.37
2018-07-22T01:19:30.304Z,20.40
2018-07-22T01:20:30.213Z,20.41
2018-07-22T01:21:30.122Z,20.47
2018-07-22T01:22:30.031Z,20.48
2018-07-22T01:23:30.192Z,20.41
2018-07-22T01:24:29.838Z,20.44
2018-07-22T01:25:29.744Z,20.47
2018-07-22T01:26:29.654Z,20.41
2018-07-22T01:27:29.562Z,20.37
2018-07-22T01:28:29.461Z,20.24
2018-07-22T01:29:29.372Z,20.36
2018-07-22T01:30:29.282Z,20.37
2018-07-22T01:31:29.189Z,20.32
2018-07-22T01:32:29.100Z,20.39
2018-07-22T01:33:28.993Z,20.24
2018-07-22T01:34:28.903Z,20.31
2018-07-22T01:35:28.811Z,20.31
2018-07-22T01:36:28.720Z,20.19
2018-07-22T01:37:28.629Z,20.21
2018-07-22T01:38:28.526Z,20.10
2018-07-22T01:39:28.436Z,20.10
2018-07-22T01:40:28.345Z,20.07
2018-07-22T01:41:28.260Z,20.02
2018-07-22T01:42:28.152Z,19.99
2018-07-22T01:43:28.067Z,19.96
2018-07-22T01:44:27.974Z,19.84
2018-07-22T01:45:27.877Z,19.81
2018-07-22T01:46:27.776Z,19.71
2018-07-22T01:47:27.685Z,19.62
2018-07-22T01:48:27.593Z,19.59
2018-07-22T01:49:27.505Z,19.52
2018-07-22T01:50:27.406Z,19.39
2018-07-22T01:51:27.314Z,19.40
2018-07-22T01:52:27.220Z,19.39
2018-07-22T01:53:27.143Z,19.39
2018-07-22T01:54:27.026Z,19.36
2018-07-22T01:55:26.935Z,19.36
2018-07-22T01:56:26.844Z,19.30
2018-07-22T01:57:26.752Z,19.31
2018-07-22T01:58:26.649Z,19.16
2018-07-22T01:59:26.557Z,19.12
2018-07-22T02:00:26.467Z,19.11
2018-07-22T02:01:26.377Z,19.07
2018-07-22T02:02:26.275Z,18.96
2018-07-22T02:03:26.183Z,18.93
2018-07-22T02:04:26.092Z,18.86
2018-07-22T02:05:26.000Z,18.68
2018-07-22T02:06:25.897Z,18.63
2018-07-22T02:07:25.811Z,18.74
2018-07-22T02:08:25.716Z,18.66
2018-07-22T02:09:25.614Z,18.65
2018-07-22T02:10:25.522Z,18.65
2018-07-22T02:11:25.437Z,18.60
2018-07-22T02:12:25.345Z,18.59
2018-07-22T02:13:25.248Z,18.63
2018-07-22T02:14:25.145Z,18.56
2018-07-22T02:15:25.054Z,18.56
2018-07-22T02:16:24.951Z,18.58
2018-07-22T02:17:24.862Z,18.59
2018-07-22T02:18:25.083Z,18.58
2018-07-22T02:19:24.669Z,18.58
2018-07-22T02:20:24.578Z,18.59
2018-07-22T02:21:24.484Z,18.55
2018-07-22T02:22:24.393Z,18.59
2018-07-22T02:23:24.290Z,18.56
2018-07-22T02:24:24.198Z,18.65
2018-07-22T02:25:24.109Z,18.55
2018-07-22T02:26:24.007Z,18.56
2018-07-22T02:27:23.914Z,18.56
2018-07-22T02:28:24.073Z,18.56
2018-07-22T02:29:23.737Z,18.52
2018-07-22T02:30:23.634Z,18.60
2018-07-22T02:31:23.542Z,18.58
2018-07-22T02:32:23.450Z,18.59
2018-07-22T02:33:23.344Z,18.60
2018-07-22T02:34:23.254Z,18.63
2018-07-22T02:35:23.176Z,18.65
2018-07-22T02:36:23.059Z,18.68
2018-07-22T02:37:22.970Z,18.70
2018-07-22T02:38:22.881Z,18.68
2018-07-22T02:39:22.778Z,18.71
2018-07-22T02:40:22.686Z,18.70
2018-07-22T02:41:22.594Z,18.75
2018-07-22T02:42:22.504Z,18.66
2018-07-22T02:43:22.401Z,18.71
2018-07-22T02:44:22.310Z,18.62
2018-07-22T02:45:22.218Z,18.65
2018-07-22T02:46:22.114Z,18.62
2018-07-22T02:47:22.036Z,18.66
2018-07-22T02:48:22.183Z,18.63
2018-07-22T02:49:21.832Z,18.60
2018-07-22T02:50:21.739Z,18.56
2018-07-22T02:51:21.657Z,18.56
2018-07-22T02:52:21.546Z,18.53
2018-07-22T02:53:21.465Z,18.44
2018-07-22T02:54:21.363Z,18.52
2018-07-22T02:55:21.260Z,18.47
2018-07-22T02:56:21.168Z,18.44
2018-07-22T02:57:21.078Z,18.43
2018-07-22T02:58:20.975Z,18.49
2018-07-22T02:59:20.893Z,18.41
2018-07-22T03:00:20.792Z,18.34
2018-07-22T03:01:20.692Z,18.37
2018-07-22T03:02:20.600Z,18.41
2018-07-22T03:03:20.564Z,18.34
2018-07-22T03:04:20.408Z,18.31
2018-07-22T03:05:20.312Z,18.31
2018-07-22T03:06:20.223Z,18.23
2018-07-22T03:07:20.131Z,18.28
2018-07-22T03:08:20.028Z,18.29
2018-07-22T03:09:19.940Z,18.26
2018-07-22T03:10:19.849Z,18.18
2018-07-22T03:11:19.747Z,18.20
2018-07-22T03:12:19.655Z,18.13
2018-07-22T03:13:19.565Z,18.15
2018-07-22T03:14:19.478Z,18.01
2018-07-22T03:15:19.370Z,18.07
2018-07-22T03:16:19.268Z,18.13
2018-07-22T03:17:19.175Z,18.16
2018-07-22T03:18:19.083Z,18.11
2018-07-22T03:19:19.012Z,18.15
2018-07-22T03:20:18.888Z,18.18
2018-07-22T03:21:18.801Z,18.18
2018-07-22T03:22:18.708Z,18.26
2018-07-22T03:23:18.606Z,18.20
2018-07-22T03:24:18.516Z,18.31
2018-07-22T03:25:18.428Z,18.23
2018-07-22T03:26:18.318Z,18.31
2018-07-22T03:27:18.229Z,18.37
2018-07-22T03:28:18.126Z,18.43
2018-07-22T03:29:18.037Z,18.47
2018-07-22T03:30:17.944Z,18.40
2018-07-22T03:31:17.840Z,18.40
2018-07-22T03:32:17.762Z,18.41
2018-07-22T03:33:17.661Z,18.49
2018-07-22T03:34:17.571Z,18.43
2018-07-22T03:35:17.467Z,18.44
2018-07-22T03:36:17.375Z,18.49
2018-07-22T03:37:17.282Z,18.40
2018-07-22T03:38:17.178Z,18.43
2018-07-22T03:39:17.089Z,18.26
2018-07-22T03:40:16.986Z,18.40
2018-07-22T03:41:16.898Z,18.43
2018-07-22T03:42:16.806Z,18.38
2018-07-22T03:43:16.703Z,18.47
2018-07-22T03:44:16.612Z,18.47
2018-07-22T03:45:16.522Z,18.45
2018-07-22T03:46:16.435Z,18.56
2018-07-22T03:47:16.382Z,18.62
2018-07-22T03:48:16.236Z,18.59
2018-07-22T03:49:16.149Z,18.58
2018-07-22T03:50:16.042Z,18.58
2018-07-22T03:51:15.949Z,18.58
2018-07-22T03:52:15.858Z,18.65
2018-07-22T03:53:15.757Z,18.66
2018-07-22T03:54:15.667Z,18.71
2018-07-22T03:55:15.612Z,18.66
2018-07-22T03:56:15.471Z,18.71
2018-07-22T03:57:15.380Z,18.77
2018-07-22T03:58:15.288Z,18.75
2018-07-22T03:59:15.185Z,18.80
2018-07-22T04:00:15.095Z,18.86
2018-07-22T04:01:15.003Z,18.86
2018-07-22T04:02:14.901Z,18.90
2018-07-22T04:03:14.810Z,18.95
2018-07-22T04:04:14.718Z,18.99
2018-07-22T04:05:14.618Z,18.99
2018-07-22T04:06:14.528Z,19.09
2018-07-22T04:07:14.449Z,19.08
2018-07-22T04:08:14.333Z,19.18
2018-07-22T04:09:14.244Z,19.15
2018-07-22T04:10:14.148Z,19.21
2018-07-22T04:11:14.058Z,19.15
2018-07-22T04:12:13.956Z,19.27
2018-07-22T04:13:13.865Z,19.27
2018-07-22T04:14:13.776Z,19.26
2018-07-22T04:15:13.677Z,19.27
2018-07-22T04:16:13.582Z,19.36
2018-07-22T04:17:13.489Z,19.33
2018-07-22T04:18:13.397Z,19.40
2018-07-22T04:19:13.293Z,19.36
2018-07-22T04:20:13.204Z,19.34
2018-07-22T04:21:13.114Z,19.34
2018-07-22T04:22:13.012Z,19.39
2018-07-22T04:23:12.920Z,19.41
2018-07-22T04:24:12.831Z,19.51
2018-07-22T04:25:12.737Z,19.49
2018-07-22T04:26:12.634Z,19.63
2018-07-22T04:27:12.543Z,19.59
2018-07-22T04:28:12.452Z,19.59
2018-07-22T04:29:12.351Z,19.59
2018-07-22T04:30:12.260Z,19.63
2018-07-22T04:31:12.169Z,19.74
2018-07-22T04:32:12.079Z,19.67
2018-07-22T04:33:11.975Z,19.84
2018-07-22T04:34:11.883Z,19.86
2018-07-22T04:35:11.792Z,19.94
2018-07-22T04:36:11.690Z,19.91
2018-07-22T04:37:11.598Z,19.91
2018-07-22T04:38:11.507Z,19.92
2018-07-22T04:39:11.415Z,19.99
2018-07-22T04:40:11.313Z,20.03
2018-07-22T04:41:11.222Z,20.03
2018-07-22T04:42:11.133Z,20.11
2018-07-22T04:43:11.041Z,20.21
2018-07-22T04:44:10.938Z,20.31
2018-07-22T04:45:10.846Z,20.29
2018-07-22T04:46:10.754Z,20.36
2018-07-22T04:47:10.663Z,20.40
2018-07-22T04:48:10.810Z,20.40
2018-07-22T04:49:10.469Z,20.48
2018-07-22T04:50:10.379Z,20.56
2018-07-22T04:51:10.287Z,20.63
2018-07-22T04:52:10.185Z,20.67
2018-07-22T04:53:10.096Z,20.74
2018-07-22T04:54:10.004Z,20.81
2018-07-22T04:55:09.917Z,20.82
2018-07-22T04:56:09.816Z,20.88
2018-07-22T04:57:09.717Z,20.99
2018-07-22T04:58:09.627Z,21.02
2018-07-22T04:59:09.535Z,20.97
2018-07-22T05:00:09.446Z,21.07
2018-07-22T05:01:09.344Z,21.20
2018-07-22T05:02:09.252Z,21.22
2018-07-22T05:03:09.164Z,21.29
2018-07-22T05:04:09.073Z,21.32
2018-07-22T05:05:08.981Z,21.40
2018-07-22T05:06:08.877Z,21.43
2018-07-22T05:07:08.788Z,21.45
2018-07-22T05:08:08.997Z,21.50
2018-07-22T05:09:08.616Z,21.54
2018-07-22T05:10:08.513Z,21.52
2018-07-22T05:11:08.410Z,21.57
2018-07-22T05:12:08.318Z,21.69
2018-07-22T05:13:08.231Z,21.66
2018-07-22T05:14:08.138Z,21.75
2018-07-22T05:15:08.048Z,21.80
2018-07-22T05:16:07.956Z,21.88
2018-07-22T05:17:07.852Z,21.93
2018-07-22T05:18:07.761Z,22.04
2018-07-22T05:19:07.670Z,22.13
2018-07-22T05:20:07.579Z,22.17
2018-07-22T05:21:07.488Z,22.25
2018-07-22T05:22:07.386Z,22.32
2018-07-22T05:23:07.295Z,22.36
2018-07-22T05:24:07.204Z,22.44
2018-07-22T05:25:07.116Z,22.50
2018-07-22T05:26:07.023Z,22.57
2018-07-22T05:27:06.935Z,22.55
2018-07-22T05:28:06.842Z,22.60
2018-07-22T05:29:06.737Z,22.65
2018-07-22T05:30:06.646Z,22.72
2018-07-22T05:31:06.555Z,22.72
2018-07-22T05:32:06.465Z,22.75
2018-07-22T05:33:06.375Z,22.75
2018-07-22T05:34:06.285Z,22.75
2018-07-22T05:35:06.184Z,22.83
2018-07-22T05:36:06.136Z,22.84
2018-07-22T05:37:06.001Z,22.91
2018-07-22T05:38:05.913Z,23.06
2018-07-22T05:39:05.820Z,23.10
2018-07-22T05:40:05.727Z,23.09
2018-07-22T05:41:05.636Z,23.09
2018-07-22T05:42:05.568Z,23.17
2018-07-22T05:43:05.692Z,23.25
2018-07-22T05:44:05.352Z,23.24
2018-07-22T05:45:05.260Z,23.39
2018-07-22T05:46:05.172Z,23.37
2018-07-22T05:47:05.079Z,23.46
2018-07-22T05:48:04.991Z,23.55
2018-07-22T05:49:04.895Z,23.65
2018-07-22T05:50:04.806Z,23.77
2018-07-22T05:51:04.713Z,23.99
2018-07-22T05:52:04.626Z,24.03
2018-07-22T05:53:04.531Z,23.99
2018-07-22T05:54:04.509Z,24.20
2018-07-22T05:55:04.339Z,24.38
2018-07-22T05:56:04.250Z,24.48
2018-07-22T05:57:04.159Z,24.45
2018-07-22T05:58:04.067Z,24.61
2018-07-22T05:59:03.977Z,24.70
2018-07-22T06:00:03.886Z,24.70
2018-07-22T06:01:03.793Z,24.70
2018-07-22T06:02:03.702Z,24.73
2018-07-22T06:03:03.626Z,24.84
2018-07-22T06:04:03.520Z,24.95
2018-07-22T06:05:03.433Z,24.99
2018-07-22T06:06:03.343Z,25.04
2018-07-22T06:07:03.250Z,25.18
2018-07-22T06:08:03.160Z,25.22
2018-07-22T06:09:03.069Z,25.32
2018-07-22T06:10:02.991Z,25.32
2018-07-22T06:11:02.889Z,25.54
2018-07-22T06:12:02.841Z,25.59
2018-07-22T06:13:02.704Z,25.62
2018-07-22T06:14:02.612Z,25.62
2018-07-22T06:15:02.510Z,25.65
2018-07-22T06:16:02.431Z,25.72
2018-07-22T06:17:02.343Z,25.77
2018-07-22T06:18:02.255Z,25.63
2018-07-22T06:19:02.153Z,25.69
2018-07-22T06:20:02.070Z,25.78
2018-07-22T06:21:01.979Z,25.68
2018-07-22T06:22:01.886Z,25.80
2018-07-22T06:23:02.046Z,25.78
2018-07-22T06:24:01.706Z,25.84
2018-07-22T06:25:01.617Z,25.90
2018-07-22T06:26:01.525Z,25.96
2018-07-22T06:27:01.435Z,25.91
2018-07-22T06:28:01.343Z,25.93
2018-07-22T06:29:01.251Z,25.95
2018-07-22T06:30:01.161Z,25.91
2018-07-22T06:31:01.070Z,25.87
2018-07-22T06:32:00.978Z,25.90
2018-07-22T06:33:00.890Z,25.95
2018-07-22T06:34:00.799Z,25.85
2018-07-22T06:35:00.709Z,25.96
2018-07-22T06:36:00.617Z,25.95
2018-07-22T06:37:00.525Z,25.88
2018-07-22T06:38:00.684Z,25.95
2018-07-22T06:39:00.344Z,25.88
2018-07-22T06:40:00.251Z,25.98
2018-07-22T06:41:00.203Z,25.95
2018-07-22T06:42:00.070Z,25.91
2018-07-22T06:42:59.982Z,26.00
2018-07-22T06:43:59.888Z,26.09
2018-07-22T06:44:59.800Z,26.22
2018-07-22T06:45:59.722Z,26.19
2018-07-22T06:46:59.631Z,26.22
2018-07-22T06:47:59.540Z,26.43
2018-07-22T06:48:59.447Z,26.55
2018-07-22T06:49:59.357Z,26.70
2018-07-22T06:50:59.265Z,26.84
2018-07-22T06:51:59.176Z,26.95
2018-07-22T06:52:59.172Z,26.97
2018-07-22T06:53:59.084Z,27.27
2018-07-22T06:54:58.991Z,27.42
2018-07-22T06:55:58.902Z,27.45
2018-07-22T06:56:58.810Z,27.70
2018-07-22T06:57:58.728Z,27.74
2018-07-22T06:58:58.641Z,27.85
2018-07-22T06:59:58.538Z,27.85
2018-07-22T07:00:58.473Z,27.93
2018-07-22T07:01:58.366Z,28.01
2018-07-22T07:02:58.280Z,27.98
2018-07-22T07:03:58.184Z,28.10
2018-07-22T07:04:58.128Z,28.01
2018-07-22T07:05:58.005Z,28.07
2018-07-22T07:06:57.915Z,28.17
2018-07-22T07:07:58.124Z,28.22
2018-07-22T07:08:57.744Z,28.07
2018-07-22T07:09:57.653Z,28.10
2018-07-22T07:10:57.597Z,27.98
2018-07-22T07:11:57.472Z,28.12
2018-07-22T07:12:57.380Z,28.23
2018-07-22T07:13:57.303Z,28.52
2018-07-22T07:14:57.211Z,28.62
2018-07-22T07:15:57.119Z,28.72
2018-07-22T07:16:57.034Z,28.74
2018-07-22T07:17:57.190Z,28.67
2018-07-22T07:18:56.850Z,28.74
2018-07-22T07:19:56.772Z,28.48
2018-07-22T07:20:56.773Z,28.39
2018-07-22T07:21:56.589Z,28.56
2018-07-22T07:22:56.497Z,28.52
2018-07-22T07:23:56.422Z,28.75
2018-07-22T07:24:56.330Z,28.78
2018-07-22T07:25:56.239Z,28.79
2018-07-22T07:26:56.149Z,29.12
2018-07-22T07:27:56.057Z,29.26
2018-07-22T07:28:55.980Z,29.36
2018-07-22T07:29:55.888Z,29.41
2018-07-22T07:30:55.797Z,29.56
2018-07-22T07:31:55.708Z,30.00
2018-07-22T07:32:55.627Z,29.98
2018-07-22T07:33:55.536Z,30.28
2018-07-22T07:34:55.445Z,30.57
2018-07-22T07:35:55.354Z,30.66
2018-07-22T07:36:55.277Z,30.65
2018-07-22T07:37:55.188Z,30.66
2018-07-22T07:38:55.098Z,30.63
2018-07-22T07:39:55.018Z,30.75
2018-07-22T07:40:54.926Z,30.99
2018-07-22T07:41:54.834Z,31.07
2018-07-22T07:42:54.756Z,31.02
2018-07-22T07:43:54.666Z,30.66
2018-07-22T07:44:54.574Z,30.66
2018-07-22T07:45:54.495Z,30.55
2018-07-22T07:46:54.413Z,30.35
2018-07-22T07:47:54.326Z,30.24
2018-07-22T07:48:54.237Z,30.19
2018-07-22T07:49:54.147Z,30.12
2018-07-22T07:50:54.057Z,29.73
2018-07-22T07:51:53.979Z,29.76
2018-07-22T07:52:53.886Z,29.73
2018-07-22T07:53:53.795Z,29.72
2018-07-22T07:54:53.716Z,29.60
2018-07-22T07:55:53.626Z,29.73
2018-07-22T07:56:53.538Z,29.91
2018-07-22T07:57:53.460Z,30.02
2018-07-22T07:58:53.368Z,30.15
2018-07-22T07:59:53.288Z,30.32
2018-07-22T08:00:53.197Z,30.47
2018-07-22T08:01:53.108Z,30.80
2018-07-22T08:02:53.029Z,31.09
2018-07-22T08:03:52.944Z,31.06
2018-07-22T08:04:52.846Z,30.92
2018-07-22T08:05:52.769Z,31.05
2018-07-22T08:06:52.690Z,31.09
2018-07-22T08:07:52.597Z,30.63
2018-07-22T08:08:52.509Z,31.15
2018-07-22T08:09:52.440Z,31.59
2018-07-22T08:10:52.340Z,31.87
2018-07-22T08:11:52.250Z,32.11
2018-07-22T08:12:52.169Z,32.31
2018-07-22T08:13:52.080Z,32.11
2018-07-22T08:14:51.987Z,31.51
2018-07-22T08:15:51.909Z,31.07
2018-07-22T08:16:51.817Z,31.29
2018-07-22T08:17:51.739Z,31.77
2018-07-22T08:18:51.649Z,31.94
2018-07-22T08:19:51.557Z,32.26
2018-07-22T08:20:51.481Z,32.21
2018-07-22T08:21:51.537Z,32.30
2018-07-22T08:22:51.302Z,32.26
2018-07-22T08:23:51.221Z,32.41
2018-07-22T08:24:51.129Z,32.40
2018-07-22T08:25:51.053Z,32.23
2018-07-22T08:26:50.962Z,31.89
2018-07-22T08:27:50.894Z,31.73
2018-07-22T08:28:50.793Z,31.54
2018-07-22T08:29:50.703Z,31.62
2018-07-22T08:30:50.624Z,31.69
2018-07-22T08:31:50.533Z,31.71
2018-07-22T08:32:50.452Z,31.84
2018-07-22T08:33:50.361Z,31.56
2018-07-22T08:34:50.272Z,31.71
2018-07-22T08:35:50.193Z,31.94
2018-07-22T08:36:50.106Z,32.31
2018-07-22T08:37:50.275Z,32.64
2018-07-22T08:38:49.936Z,33.05
2018-07-22T08:39:49.856Z,33.36
2018-07-22T08:40:49.764Z,33.43
2018-07-22T08:41:49.685Z,33.50
2018-07-22T08:42:49.595Z,33.81
2018-07-22T08:43:49.504Z,34.13
2018-07-22T08:44:49.427Z,33.86
2018-07-22T08:45:49.337Z,33.53
2018-07-22T08:46:49.259Z,32.53
2018-07-22T08:47:49.168Z,31.73
2018-07-22T08:48:49.092Z,32.49
2018-07-22T08:49:48.999Z,32.78
2018-07-22T08:50:48.921Z,33.05
2018-07-22T08:51:48.829Z,31.64
2018-07-22T08:52:48.748Z,30.88
2018-07-22T08:53:48.660Z,31.18
2018-07-22T08:54:48.580Z,31.58
2018-07-22T08:55:48.490Z,32.07
2018-07-22T08:56:48.412Z,32.33
2018-07-22T08:57:48.324Z,32.95
2018-07-22T08:58:48.244Z,33.11
2018-07-22T08:59:48.153Z,32.67
2018-07-22T09:00:48.072Z,33.58
2018-07-22T09:01:47.982Z,34.35
2018-07-22T09:02:47.905Z,34.66
2018-07-22T09:03:47.826Z,35.17
2018-07-22T09:04:47.734Z,35.26
2018-07-22T09:05:47.657Z,35.23
2018-07-22T09:06:47.566Z,34.95
2018-07-22T09:07:47.490Z,35.27
2018-07-22T09:08:47.411Z,35.45
2018-07-22T09:09:47.320Z,35.79
2018-07-22T09:10:47.241Z,36.20
2018-07-22T09:11:47.189Z,36.61
2018-07-22T09:12:47.083Z,36.61
2018-07-22T09:13:46.992Z,36.77
2018-07-22T09:14:46.915Z,36.67
2018-07-22T09:15:46.836Z,36.54
2018-07-22T09:16:46.747Z,35.86
2018-07-22T09:17:46.989Z,35.19
2018-07-22T09:18:46.593Z,34.89
2018-07-22T09:19:46.512Z,34.97
2018-07-22T09:20:46.433Z,34.97
2018-07-22T09:21:46.343Z,34.86
2018-07-22T09:22:46.266Z,34.86
2018-07-22T09:23:46.187Z,35.14
2018-07-22T09:24:46.106Z,35.39
2018-07-22T09:25:46.017Z,35.46
2018-07-22T09:26:45.936Z,35.44
2018-07-22T09:27:45.875Z,35.97
2018-07-22T09:28:45.782Z,35.45
2018-07-22T09:29:45.704Z,35.52
2018-07-22T09:30:45.613Z,35.86
2018-07-22T09:31:45.537Z,35.73
2018-07-22T09:32:45.455Z,35.51
2018-07-22T09:33:45.376Z,35.15
2018-07-22T09:34:45.298Z,35.17
2018-07-22T09:35:45.234Z,34.99
2018-07-22T09:36:45.129Z,34.18
2018-07-22T09:37:45.051Z,34.05
2018-07-22T09:38:44.971Z,33.36
2018-07-22T09:39:44.906Z,33.05
2018-07-22T09:40:44.817Z,33.20
2018-07-22T09:41:44.790Z,32.80
2018-07-22T09:42:44.650Z,32.71
2018-07-22T09:43:44.570Z,32.86
2018-07-22T09:44:44.490Z,33.19
2018-07-22T09:45:44.411Z,33.34
2018-07-22T09:46:44.320Z,33.58
2018-07-22T09:47:44.244Z,32.56
2018-07-22T09:48:44.165Z,32.33
2018-07-22T09:49:44.087Z,31.81
2018-07-22T09:50:44.000Z,31.29
2018-07-22T09:51:43.919Z,31.20
2018-07-22T09:52:43.841Z,31.24
2018-07-22T09:53:43.809Z,31.17
2018-07-22T09:54:43.671Z,30.87
2018-07-22T09:55:43.595Z,31.28
2018-07-22T09:56:43.511Z,31.51
2018-07-22T09:57:43.422Z,31.70
2018-07-22T09:58:43.343Z,31.71
2018-07-22T09:59:43.265Z,32.03
2018-07-22T10:00:43.177Z,32.48
2018-07-22T10:01:43.097Z,32.68
2018-07-22T10:02:43.019Z,31.92
2018-07-22T10:03:42.941Z,32.29
2018-07-22T10:04:42.892Z,32.38
2018-07-22T10:05:42.771Z,32.80
2018-07-22T10:06:42.692Z,33.39
2018-07-22T10:07:42.613Z,33.73
2018-07-22T10:08:42.522Z,34.29
2018-07-22T10:09:42.444Z,34.48
2018-07-22T10:10:42.365Z,35.02
2018-07-22T10:11:42.287Z,34.93
2018-07-22T10:12:42.199Z,35.24
2018-07-22T10:13:42.122Z,35.36
2018-07-22T10:14:42.115Z,35.52
2018-07-22T10:15:41.964Z,35.70
2018-07-22T10:16:41.871Z,36.02
2018-07-22T10:17:42.118Z,36.31
2018-07-22T10:18:41.714Z,36.42
2018-07-22T10:19:41.649Z,36.39
2018-07-22T10:20:41.559Z,36.42
2018-07-22T10:21:41.469Z,36.42
2018-07-22T10:22:41.391Z,36.42
2018-07-22T10:23:41.315Z,35.93
2018-07-22T10:24:41.235Z,36.14
2018-07-22T10:25:41.155Z,36.09
2018-07-22T10:26:41.064Z,36.02
2018-07-22T10:27:40.988Z,35.73
2018-07-22T10:28:40.954Z,35.58
2018-07-22T10:29:40.827Z,35.42
2018-07-22T10:30:40.749Z,34.96
2018-07-22T10:31:40.659Z,34.83
2018-07-22T10:32:40.582Z,34.70
2018-07-22T10:33:40.504Z,33.81
2018-07-22T10:34:40.429Z,33.47
2018-07-22T10:35:40.336Z,32.83
2018-07-22T10:36:40.254Z,32.55
2018-07-22T10:37:40.175Z,32.51
2018-07-22T10:38:40.098Z,32.12
2018-07-22T10:39:40.019Z,32.12
2018-07-22T10:40:39.943Z,32.40
2018-07-22T10:41:39.852Z,32.40
2018-07-22T10:42:39.775Z,32.33
2018-07-22T10:43:39.698Z,32.43
2018-07-22T10:44:39.602Z,32.46
2018-07-22T10:45:39.538Z,32.36
2018-07-22T10:46:39.449Z,32.38
2018-07-22T10:47:39.364Z,32.37
2018-07-22T10:48:39.279Z,32.40
2018-07-22T10:49:39.201Z,32.18
2018-07-22T10:50:39.122Z,32.26
2018-07-22T10:51:39.031Z,32.30
2018-07-22T10:52:38.951Z,32.12
2018-07-22T10:53:38.872Z,32.23
2018-07-22T10:54:38.783Z,32.30
2018-07-22T10:55:38.719Z,32.26
2018-07-22T10:56:38.626Z,32.23
2018-07-22T10:57:38.534Z,32.30
2018-07-22T10:58:38.464Z,31.94
2018-07-22T10:59:38.378Z,32.09
2018-07-22T11:00:38.290Z,32.27
2018-07-22T11:01:38.212Z,31.84
2018-07-22T11:02:38.127Z,32.00
2018-07-22T11:03:38.042Z,31.81
2018-07-22T11:04:37.961Z,31.64
2018-07-22T11:05:37.871Z,31.73
2018-07-22T11:06:37.793Z,31.54
2018-07-22T11:07:37.705Z,31.55
2018-07-22T11:08:37.625Z,31.74
2018-07-22T11:09:37.547Z,31.69
2018-07-22T11:10:37.457Z,31.94
2018-07-22T11:11:37.378Z,32.23
2018-07-22T11:12:37.291Z,31.90
2018-07-22T11:13:37.208Z,31.73
2018-07-22T11:14:37.168Z,32.00
2018-07-22T11:15:37.040Z,32.04
2018-07-22T11:16:36.960Z,32.27
2018-07-22T11:17:37.181Z,32.41
2018-07-22T11:18:36.789Z,32.41
2018-07-22T11:19:36.711Z,32.08
2018-07-22T11:20:36.623Z,31.59
2018-07-22T11:21:36.546Z,31.76
2018-07-22T11:22:36.454Z,31.78
2018-07-22T11:23:36.378Z,31.78
2018-07-22T11:24:36.295Z,31.87
2018-07-22T11:25:36.204Z,31.40
2018-07-22T11:26:36.127Z,31.44
2018-07-22T11:27:36.039Z,31.43
2018-07-22T11:28:35.960Z,31.62
2018-07-22T11:29:35.879Z,31.58
2018-07-22T11:30:35.789Z,31.76
2018-07-22T11:31:35.720Z,32.01
2018-07-22T11:32:35.621Z,31.97
2018-07-22T11:33:35.542Z,31.78
2018-07-22T11:34:35.464Z,31.64
2018-07-22T11:35:35.374Z,31.61
2018-07-22T11:36:35.293Z,31.62
2018-07-22T11:37:35.203Z,31.34
2018-07-22T11:38:35.136Z,31.05
2018-07-22T11:39:35.033Z,30.63
2018-07-22T11:40:34.960Z,30.34
2018-07-22T11:41:34.868Z,30.28
2018-07-22T11:42:34.787Z,30.39
2018-07-22T11:43:34.698Z,30.34
2018-07-22T11:44:34.619Z,30.31
2018-07-22T11:45:34.540Z,30.37
2018-07-22T11:46:34.448Z,30.80
2018-07-22T11:47:34.385Z,30.90
2018-07-22T11:48:34.278Z,30.83
2018-07-22T11:49:34.201Z,30.85
2018-07-22T11:50:34.159Z,30.85
2018-07-22T11:51:34.030Z,30.70
2018-07-22T11:52:33.942Z,30.62
2018-07-22T11:53:33.864Z,30.59
2018-07-22T11:54:33.774Z,30.48
2018-07-22T11:55:33.693Z,29.95
2018-07-22T11:56:33.604Z,29.86
2018-07-22T11:57:33.511Z,29.73
2018-07-22T11:58:33.433Z,29.69
2018-07-22T11:59:33.342Z,29.75
2018-07-22T12:00:33.263Z,29.73
2018-07-22T12:01:33.194Z,29.47
2018-07-22T12:02:33.093Z,29.75
2018-07-22T12:03:33.004Z,29.90
2018-07-22T12:04:32.929Z,29.97
2018-07-22T12:05:32.836Z,30.00
2018-07-22T12:06:32.746Z,30.09
2018-07-22T12:07:32.674Z,30.30
2018-07-22T12:08:32.574Z,30.46
2018-07-22T12:09:32.496Z,30.65
2018-07-22T12:10:32.406Z,30.65
2018-07-22T12:11:32.328Z,30.69
2018-07-22T12:12:32.261Z,30.78
2018-07-22T12:13:32.148Z,30.78
2018-07-22T12:14:32.072Z,30.57
2018-07-22T12:15:31.979Z,30.84
2018-07-22T12:16:31.899Z,31.10
2018-07-22T12:17:32.062Z,31.21
2018-07-22T12:18:31.731Z,31.07
2018-07-22T12:19:31.639Z,31.42
2018-07-22T12:20:31.546Z,31.56
2018-07-22T12:21:31.475Z,31.42
2018-07-22T12:22:31.377Z,31.36
2018-07-22T12:23:31.299Z,31.62
2018-07-22T12:24:31.211Z,31.74
2018-07-22T12:25:31.132Z,31.73
2018-07-22T12:26:31.041Z,31.76
2018-07-22T12:27:30.953Z,31.54
2018-07-22T12:28:30.871Z,31.09
2018-07-22T12:29:30.779Z,31.28
2018-07-22T12:30:30.700Z,31.06
2018-07-22T12:31:30.612Z,31.21
2018-07-22T12:32:30.524Z,31.27
2018-07-22T12:33:30.441Z,31.39
2018-07-22T12:34:30.367Z,31.24
2018-07-22T12:35:30.272Z,31.28
2018-07-22T12:36:30.183Z,31.31
2018-07-22T12:37:30.106Z,31.33
2018-07-22T12:38:30.028Z,31.42
2018-07-22T12:39:29.936Z,31.56
2018-07-22T12:40:29.887Z,31.62
2018-07-22T12:41:29.764Z,31.69
2018-07-22T12:42:29.674Z,31.73
2018-07-22T12:43:29.583Z,31.74
2018-07-22T12:44:29.520Z,31.71
2018-07-22T12:45:29.416Z,31.81
2018-07-22T12:46:29.341Z,31.59
2018-07-22T12:47:29.261Z,31.27
2018-07-22T12:48:29.166Z,31.25
2018-07-22T12:49:29.076Z,31.18
2018-07-22T12:50:28.989Z,31.07
2018-07-22T12:51:28.906Z,30.87